sensor_id;sensor_type;location;lat;lon;timestamp;P1;durP1;ratioP1;P2;durP2;ratioP2
10823;SDS011;39116;59.332;18.034;2022-10-22T00:01:25;5.07;;;3.47;;
10823;SDS011;39116;59.332;18.034;2022-10-22T00:03:52;4.05;;;3.20;;
10823;SDS011;39116;59.332;18.034;2022-10-22T00:06:20;4.95;;;3.15;;
10823;SDS011;39116;59.332;18.034;2022-10-22T00:08:46;3.95;;;3.22;;
10823;SDS011;39116;59.332;18.034;2022-10-22T00:11:14;3.17;;;2.85;;
10823;SDS011;39116;59.332;18.034;2022-10-22T00:13:41;5.90;;;3.15;;
10823;SDS011;39116;59.332;18.034;2022-10-22T00:16:07;4.47;;;3.22;;
10823;SDS011;39116;59.332;18.034;2022-10-22T00:18:34;5.35;;;3.20;;
10823;SDS011;39116;59.332;18.034;2022-10-22T00:21:00;4.63;;;3.13;;
10823;SDS011;39116;59.332;18.034;2022-10-22T00:23:28;4.18;;;2.45;;
10823;SDS011;39116;59.332;18.034;2022-10-22T00:25:55;5.47;;;2.83;;
10823;SDS011;39116;59.332;18.034;2022-10-22T00:28:21;3.58;;;2.75;;
10823;SDS011;39116;59.332;18.034;2022-10-22T00:30:53;3.88;;;2.60;;
10823;SDS011;39116;59.332;18.034;2022-10-22T00:33:20;3.78;;;2.70;;
10823;SDS011;39116;59.332;18.034;2022-10-22T00:35:46;3.90;;;2.92;;
10823;SDS011;39116;59.332;18.034;2022-10-22T00:38:13;4.25;;;2.47;;
10823;SDS011;39116;59.332;18.034;2022-10-22T00:40:42;3.70;;;2.60;;
10823;SDS011;39116;59.332;18.034;2022-10-22T00:43:09;3.72;;;2.70;;
10823;SDS011;39116;59.332;18.034;2022-10-22T00:45:35;4.55;;;2.58;;
10823;SDS011;39116;59.332;18.034;2022-10-22T00:48:03;3.78;;;2.95;;
10823;SDS011;39116;59.332;18.034;2022-10-22T00:50:30;4.40;;;2.53;;
10823;SDS011;39116;59.332;18.034;2022-10-22T00:52:59;5.03;;;2.80;;
10823;SDS011;39116;59.332;18.034;2022-10-22T00:55:25;4.03;;;3.00;;
10823;SDS011;39116;59.332;18.034;2022-10-22T00:57:54;3.40;;;2.50;;
10823;SDS011;39116;59.332;18.034;2022-10-22T01:00:21;4.72;;;2.53;;
10823;SDS011;39116;59.332;18.034;2022-10-22T01:02:48;4.32;;;2.95;;
10823;SDS011;39116;59.332;18.034;2022-10-22T01:05:15;4.40;;;2.70;;
10823;SDS011;39116;59.332;18.034;2022-10-22T01:07:43;3.80;;;2.60;;
10823;SDS011;39116;59.332;18.034;2022-10-22T01:10:13;3.72;;;2.80;;
10823;SDS011;39116;59.332;18.034;2022-10-22T01:12:43;3.47;;;2.28;;
10823;SDS011;39116;59.332;18.034;2022-10-22T01:15:17;5.47;;;2.72;;
10823;SDS011;39116;59.332;18.034;2022-10-22T01:17:46;4.82;;;2.70;;
10823;SDS011;39116;59.332;18.034;2022-10-22T01:20:19;6.13;;;2.78;;
10823;SDS011;39116;59.332;18.034;2022-10-22T01:22:53;5.18;;;2.90;;
10823;SDS011;39116;59.332;18.034;2022-10-22T01:25:23;5.18;;;2.80;;
10823;SDS011;39116;59.332;18.034;2022-10-22T01:27:56;3.08;;;2.78;;
10823;SDS011;39116;59.332;18.034;2022-10-22T01:30:28;3.75;;;2.60;;
10823;SDS011;39116;59.332;18.034;2022-10-22T01:32:55;3.50;;;2.40;;
10823;SDS011;39116;59.332;18.034;2022-10-22T01:35:23;5.00;;;2.70;;
10823;SDS011;39116;59.332;18.034;2022-10-22T01:37:53;4.88;;;2.65;;
10823;SDS011;39116;59.332;18.034;2022-10-22T01:40:20;4.78;;;3.10;;
10823;SDS011;39116;59.332;18.034;2022-10-22T01:42:55;5.55;;;2.90;;
10823;SDS011;39116;59.332;18.034;2022-10-22T01:45:21;2.97;;;2.58;;
10823;SDS011;39116;59.332;18.034;2022-10-22T01:47:51;5.80;;;2.80;;
10823;SDS011;39116;59.332;18.034;2022-10-22T01:53:08;2.70;;;2.50;;
10823;SDS011;39116;59.332;18.034;2022-10-22T01:55:39;4.80;;;3.03;;
10823;SDS011;39116;59.332;18.034;2022-10-22T01:58:10;3.80;;;2.88;;
10823;SDS011;39116;59.332;18.034;2022-10-22T02:00:43;3.78;;;2.70;;
10823;SDS011;39116;59.332;18.034;2022-10-22T02:03:13;3.40;;;2.53;;
10823;SDS011;39116;59.332;18.034;2022-10-22T02:05:42;5.32;;;2.85;;
10823;SDS011;39116;59.332;18.034;2022-10-22T02:08:09;3.67;;;2.65;;
10823;SDS011;39116;59.332;18.034;2022-10-22T02:10:37;4.18;;;2.75;;
10823;SDS011;39116;59.332;18.034;2022-10-22T02:13:06;3.53;;;2.45;;
10823;SDS011;39116;59.332;18.034;2022-10-22T02:15:33;4.25;;;2.60;;
10823;SDS011;39116;59.332;18.034;2022-10-22T02:18:00;4.18;;;2.60;;
10823;SDS011;39116;59.332;18.034;2022-10-22T02:20:30;4.78;;;2.83;;
10823;SDS011;39116;59.332;18.034;2022-10-22T02:22:57;4.88;;;2.70;;
10823;SDS011;39116;59.332;18.034;2022-10-22T02:25:26;4.05;;;2.60;;
10823;SDS011;39116;59.332;18.034;2022-10-22T02:27:57;7.30;;;3.00;;
10823;SDS011;39116;59.332;18.034;2022-10-22T02:30:25;3.30;;;2.50;;
10823;SDS011;39116;59.332;18.034;2022-10-22T02:32:53;3.78;;;2.53;;
10823;SDS011;39116;59.332;18.034;2022-10-22T02:35:22;3.50;;;2.70;;
10823;SDS011;39116;59.332;18.034;2022-10-22T02:37:50;4.03;;;2.78;;
10823;SDS011;39116;59.332;18.034;2022-10-22T02:40:17;3.80;;;2.58;;
10823;SDS011;39116;59.332;18.034;2022-10-22T02:42:45;3.80;;;2.88;;
10823;SDS011;39116;59.332;18.034;2022-10-22T02:45:12;4.78;;;2.95;;
10823;SDS011;39116;59.332;18.034;2022-10-22T02:47:39;3.03;;;2.70;;
10823;SDS011;39116;59.332;18.034;2022-10-22T02:50:05;2.83;;;2.47;;
10823;SDS011;39116;59.332;18.034;2022-10-22T02:52:32;3.22;;;2.20;;
10823;SDS011;39116;59.332;18.034;2022-10-22T02:55:00;5.70;;;2.70;;
10823;SDS011;39116;59.332;18.034;2022-10-22T02:57:26;3.55;;;2.72;;
10823;SDS011;39116;59.332;18.034;2022-10-22T02:59:53;3.75;;;2.65;;
10823;SDS011;39116;59.332;18.034;2022-10-22T03:02:19;3.90;;;2.67;;
10823;SDS011;39116;59.332;18.034;2022-10-22T03:04:46;4.15;;;2.78;;
10823;SDS011;39116;59.332;18.034;2022-10-22T03:07:12;4.35;;;2.45;;
10823;SDS011;39116;59.332;18.034;2022-10-22T03:09:39;4.28;;;2.70;;
10823;SDS011;39116;59.332;18.034;2022-10-22T03:12:07;5.03;;;2.85;;
10823;SDS011;39116;59.332;18.034;2022-10-22T03:14:34;3.90;;;2.85;;
10823;SDS011;39116;59.332;18.034;2022-10-22T03:17:00;5.68;;;2.78;;
10823;SDS011;39116;59.332;18.034;2022-10-22T03:19:27;5.47;;;2.88;;
10823;SDS011;39116;59.332;18.034;2022-10-22T03:21:54;6.32;;;2.97;;
10823;SDS011;39116;59.332;18.034;2022-10-22T03:24:30;4.80;;;3.17;;
10823;SDS011;39116;59.332;18.034;2022-10-22T03:26:59;3.83;;;3.10;;
10823;SDS011;39116;59.332;18.034;2022-10-22T03:29:27;5.07;;;3.10;;
10823;SDS011;39116;59.332;18.034;2022-10-22T03:31:54;4.88;;;3.20;;
10823;SDS011;39116;59.332;18.034;2022-10-22T03:34:20;4.53;;;2.97;;
10823;SDS011;39116;59.332;18.034;2022-10-22T03:36:47;4.88;;;3.20;;
10823;SDS011;39116;59.332;18.034;2022-10-22T03:39:14;4.32;;;2.83;;
10823;SDS011;39116;59.332;18.034;2022-10-22T03:41:41;4.20;;;2.97;;
10823;SDS011;39116;59.332;18.034;2022-10-22T03:44:08;3.67;;;2.70;;
10823;SDS011;39116;59.332;18.034;2022-10-22T03:46:36;5.57;;;2.80;;
10823;SDS011;39116;59.332;18.034;2022-10-22T03:49:03;4.00;;;3.22;;
10823;SDS011;39116;59.332;18.034;2022-10-22T03:51:29;3.92;;;3.00;;
10823;SDS011;39116;59.332;18.034;2022-10-22T03:53:56;4.22;;;3.03;;
10823;SDS011;39116;59.332;18.034;2022-10-22T03:56:22;4.82;;;3.03;;
10823;SDS011;39116;59.332;18.034;2022-10-22T03:58:49;4.88;;;3.20;;
10823;SDS011;39116;59.332;18.034;2022-10-22T04:01:15;4.18;;;3.20;;
10823;SDS011;39116;59.332;18.034;2022-10-22T04:03:43;4.65;;;3.38;;
10823;SDS011;39116;59.332;18.034;2022-10-22T04:06:10;4.10;;;3.42;;
10823;SDS011;39116;59.332;18.034;2022-10-22T04:08:38;5.35;;;4.15;;
10823;SDS011;39116;59.332;18.034;2022-10-22T04:11:04;6.38;;;3.72;;
10823;SDS011;39116;59.332;18.034;2022-10-22T04:13:31;7.55;;;4.38;;
10823;SDS011;39116;59.332;18.034;2022-10-22T04:16:05;5.38;;;4.65;;
10823;SDS011;39116;59.332;18.034;2022-10-22T04:18:31;4.65;;;4.25;;
10823;SDS011;39116;59.332;18.034;2022-10-22T04:20:59;5.72;;;4.10;;
10823;SDS011;39116;59.332;18.034;2022-10-22T04:23:25;4.55;;;4.05;;
10823;SDS011;39116;59.332;18.034;2022-10-22T04:25:56;5.65;;;3.88;;
10823;SDS011;39116;59.332;18.034;2022-10-22T04:28:22;6.85;;;4.40;;
10823;SDS011;39116;59.332;18.034;2022-10-22T04:30:49;6.82;;;4.05;;
10823;SDS011;39116;59.332;18.034;2022-10-22T04:33:15;5.55;;;3.65;;
10823;SDS011;39116;59.332;18.034;2022-10-22T04:35:42;4.65;;;3.88;;
10823;SDS011;39116;59.332;18.034;2022-10-22T04:38:10;6.63;;;3.63;;
10823;SDS011;39116;59.332;18.034;2022-10-22T04:40:36;4.35;;;3.30;;
10823;SDS011;39116;59.332;18.034;2022-10-22T04:43:03;4.65;;;2.90;;
10823;SDS011;39116;59.332;18.034;2022-10-22T04:45:31;5.32;;;3.53;;
10823;SDS011;39116;59.332;18.034;2022-10-22T04:47:58;4.53;;;3.75;;
10823;SDS011;39116;59.332;18.034;2022-10-22T04:50:24;3.78;;;3.28;;
10823;SDS011;39116;59.332;18.034;2022-10-22T04:52:50;5.15;;;3.15;;
10823;SDS011;39116;59.332;18.034;2022-10-22T04:55:18;5.70;;;3.15;;
10823;SDS011;39116;59.332;18.034;2022-10-22T04:57:45;4.07;;;2.95;;
10823;SDS011;39116;59.332;18.034;2022-10-22T05:00:12;4.97;;;3.00;;
10823;SDS011;39116;59.332;18.034;2022-10-22T05:02:40;4.18;;;3.33;;
10823;SDS011;39116;59.332;18.034;2022-10-22T05:05:08;4.72;;;3.20;;
10823;SDS011;39116;59.332;18.034;2022-10-22T05:07:36;5.30;;;3.20;;
10823;SDS011;39116;59.332;18.034;2022-10-22T05:10:02;4.68;;;2.85;;
10823;SDS011;39116;59.332;18.034;2022-10-22T05:12:30;4.32;;;3.10;;
10823;SDS011;39116;59.332;18.034;2022-10-22T05:14:56;3.97;;;2.80;;
10823;SDS011;39116;59.332;18.034;2022-10-22T05:17:23;7.18;;;3.30;;
10823;SDS011;39116;59.332;18.034;2022-10-22T05:19:49;4.13;;;2.55;;
10823;SDS011;39116;59.332;18.034;2022-10-22T05:22:16;5.78;;;3.50;;
10823;SDS011;39116;59.332;18.034;2022-10-22T05:24:42;4.43;;;3.13;;
10823;SDS011;39116;59.332;18.034;2022-10-22T05:27:09;4.05;;;3.05;;
10823;SDS011;39116;59.332;18.034;2022-10-22T05:29:37;4.07;;;3.00;;
10823;SDS011;39116;59.332;18.034;2022-10-22T05:32:03;4.18;;;3.08;;
10823;SDS011;39116;59.332;18.034;2022-10-22T05:34:30;3.47;;;2.80;;
10823;SDS011;39116;59.332;18.034;2022-10-22T05:36:57;4.10;;;2.67;;
10823;SDS011;39116;59.332;18.034;2022-10-22T05:39:23;5.15;;;2.90;;
10823;SDS011;39116;59.332;18.034;2022-10-22T05:41:50;4.18;;;2.90;;
10823;SDS011;39116;59.332;18.034;2022-10-22T05:44:18;4.68;;;2.50;;
10823;SDS011;39116;59.332;18.034;2022-10-22T05:46:46;3.25;;;2.47;;
10823;SDS011;39116;59.332;18.034;2022-10-22T05:49:13;4.25;;;2.42;;
10823;SDS011;39116;59.332;18.034;2022-10-22T05:51:40;4.03;;;2.78;;
10823;SDS011;39116;59.332;18.034;2022-10-22T05:54:07;3.75;;;2.85;;
10823;SDS011;39116;59.332;18.034;2022-10-22T05:56:35;3.42;;;2.75;;
10823;SDS011;39116;59.332;18.034;2022-10-22T05:59:01;3.88;;;2.65;;
10823;SDS011;39116;59.332;18.034;2022-10-22T06:01:29;4.38;;;2.38;;
10823;SDS011;39116;59.332;18.034;2022-10-22T06:03:58;3.42;;;2.40;;
10823;SDS011;39116;59.332;18.034;2022-10-22T06:06:26;4.20;;;2.67;;
10823;SDS011;39116;59.332;18.034;2022-10-22T06:08:53;3.50;;;2.50;;
10823;SDS011;39116;59.332;18.034;2022-10-22T06:11:20;3.75;;;2.67;;
10823;SDS011;39116;59.332;18.034;2022-10-22T06:13:47;3.65;;;2.40;;
10823;SDS011;39116;59.332;18.034;2022-10-22T06:16:14;4.25;;;2.92;;
10823;SDS011;39116;59.332;18.034;2022-10-22T06:18:41;3.58;;;2.78;;
10823;SDS011;39116;59.332;18.034;2022-10-22T06:21:10;4.15;;;3.17;;
10823;SDS011;39116;59.332;18.034;2022-10-22T06:23:37;4.80;;;2.90;;
10823;SDS011;39116;59.332;18.034;2022-10-22T06:26:04;2.60;;;2.40;;
10823;SDS011;39116;59.332;18.034;2022-10-22T06:28:31;5.10;;;2.78;;
10823;SDS011;39116;59.332;18.034;2022-10-22T06:30:58;4.30;;;3.15;;
10823;SDS011;39116;59.332;18.034;2022-10-22T06:33:24;4.07;;;2.95;;
10823;SDS011;39116;59.332;18.034;2022-10-22T06:35:51;4.45;;;2.90;;
10823;SDS011;39116;59.332;18.034;2022-10-22T06:38:19;3.70;;;2.97;;
10823;SDS011;39116;59.332;18.034;2022-10-22T06:40:46;3.92;;;3.15;;
10823;SDS011;39116;59.332;18.034;2022-10-22T06:43:12;4.78;;;3.20;;
10823;SDS011;39116;59.332;18.034;2022-10-22T06:45:39;6.25;;;3.40;;
10823;SDS011;39116;59.332;18.034;2022-10-22T06:48:06;4.93;;;3.38;;
10823;SDS011;39116;59.332;18.034;2022-10-22T06:50:32;5.50;;;3.30;;
10823;SDS011;39116;59.332;18.034;2022-10-22T06:52:59;10.07;;;3.55;;
10823;SDS011;39116;59.332;18.034;2022-10-22T06:55:27;3.67;;;2.88;;
10823;SDS011;39116;59.332;18.034;2022-10-22T06:57:53;5.15;;;3.20;;
10823;SDS011;39116;59.332;18.034;2022-10-22T07:00:20;3.90;;;3.47;;
10823;SDS011;39116;59.332;18.034;2022-10-22T07:02:49;4.60;;;3.22;;
10823;SDS011;39116;59.332;18.034;2022-10-22T07:05:16;4.28;;;3.17;;
10823;SDS011;39116;59.332;18.034;2022-10-22T07:07:43;4.00;;;3.20;;
10823;SDS011;39116;59.332;18.034;2022-10-22T07:10:09;5.28;;;3.70;;
10823;SDS011;39116;59.332;18.034;2022-10-22T07:12:37;5.25;;;3.58;;
10823;SDS011;39116;59.332;18.034;2022-10-22T07:15:04;4.80;;;3.70;;
10823;SDS011;39116;59.332;18.034;2022-10-22T07:17:31;4.60;;;3.78;;
10823;SDS011;39116;59.332;18.034;2022-10-22T07:19:57;4.65;;;3.78;;
10823;SDS011;39116;59.332;18.034;2022-10-22T07:22:24;7.10;;;4.00;;
10823;SDS011;39116;59.332;18.034;2022-10-22T07:24:50;7.30;;;3.95;;
10823;SDS011;39116;59.332;18.034;2022-10-22T07:27:16;5.60;;;4.30;;
10823;SDS011;39116;59.332;18.034;2022-10-22T07:29:44;6.63;;;4.45;;
10823;SDS011;39116;59.332;18.034;2022-10-22T07:32:11;5.38;;;4.10;;
10823;SDS011;39116;59.332;18.034;2022-10-22T07:34:37;5.88;;;4.13;;
10823;SDS011;39116;59.332;18.034;2022-10-22T07:37:04;6.97;;;4.00;;
10823;SDS011;39116;59.332;18.034;2022-10-22T07:39:30;4.95;;;4.43;;
10823;SDS011;39116;59.332;18.034;2022-10-22T07:41:57;5.88;;;4.78;;
10823;SDS011;39116;59.332;18.034;2022-10-22T07:44:24;6.13;;;4.72;;
10823;SDS011;39116;59.332;18.034;2022-10-22T07:46:51;6.00;;;4.70;;
10823;SDS011;39116;59.332;18.034;2022-10-22T07:49:18;5.25;;;4.18;;
10823;SDS011;39116;59.332;18.034;2022-10-22T07:51:44;4.85;;;4.35;;
10823;SDS011;39116;59.332;18.034;2022-10-22T07:54:11;5.57;;;4.05;;
10823;SDS011;39116;59.332;18.034;2022-10-22T07:56:37;8.68;;;3.88;;
10823;SDS011;39116;59.332;18.034;2022-10-22T07:59:04;7.45;;;4.28;;
10823;SDS011;39116;59.332;18.034;2022-10-22T08:01:30;5.13;;;4.43;;
10823;SDS011;39116;59.332;18.034;2022-10-22T08:03:58;7.30;;;4.72;;
10823;SDS011;39116;59.332;18.034;2022-10-22T08:06:25;8.90;;;5.30;;
10823;SDS011;39116;59.332;18.034;2022-10-22T08:08:51;6.47;;;4.90;;
10823;SDS011;39116;59.332;18.034;2022-10-22T08:11:18;8.00;;;4.75;;
10823;SDS011;39116;59.332;18.034;2022-10-22T08:13:44;6.43;;;4.57;;
10823;SDS011;39116;59.332;18.034;2022-10-22T08:16:11;6.55;;;5.18;;
10823;SDS011;39116;59.332;18.034;2022-10-22T08:18:37;7.22;;;4.95;;
10823;SDS011;39116;59.332;18.034;2022-10-22T08:21:05;5.60;;;4.60;;
10823;SDS011;39116;59.332;18.034;2022-10-22T08:23:32;6.63;;;4.72;;
10823;SDS011;39116;59.332;18.034;2022-10-22T08:25:58;5.32;;;4.82;;
10823;SDS011;39116;59.332;18.034;2022-10-22T08:28:27;8.57;;;5.55;;
10823;SDS011;39116;59.332;18.034;2022-10-22T08:30:55;5.70;;;4.65;;
10823;SDS011;39116;59.332;18.034;2022-10-22T08:33:21;6.22;;;4.97;;
10823;SDS011;39116;59.332;18.034;2022-10-22T08:35:48;7.32;;;5.07;;
10823;SDS011;39116;59.332;18.034;2022-10-22T08:38:16;6.97;;;5.32;;
10823;SDS011;39116;59.332;18.034;2022-10-22T08:40:43;6.53;;;5.75;;
10823;SDS011;39116;59.332;18.034;2022-10-22T08:43:19;8.70;;;5.30;;
10823;SDS011;39116;59.332;18.034;2022-10-22T08:45:51;7.50;;;5.80;;
10823;SDS011;39116;59.332;18.034;2022-10-22T08:48:27;9.05;;;5.85;;
10823;SDS011;39116;59.332;18.034;2022-10-22T08:50:55;7.32;;;5.72;;
10823;SDS011;39116;59.332;18.034;2022-10-22T08:53:26;6.85;;;5.18;;
10823;SDS011;39116;59.332;18.034;2022-10-22T08:55:53;6.47;;;5.80;;
10823;SDS011;39116;59.332;18.034;2022-10-22T08:58:20;9.00;;;5.80;;
10823;SDS011;39116;59.332;18.034;2022-10-22T09:00:51;7.82;;;5.63;;
10823;SDS011;39116;59.332;18.034;2022-10-22T09:03:23;9.43;;;6.25;;
10823;SDS011;39116;59.332;18.034;2022-10-22T09:05:53;9.30;;;6.07;;
10823;SDS011;39116;59.332;18.034;2022-10-22T09:08:21;8.80;;;5.97;;
10823;SDS011;39116;59.332;18.034;2022-10-22T09:10:49;7.82;;;5.35;;
10823;SDS011;39116;59.332;18.034;2022-10-22T09:13:19;7.35;;;5.90;;
10823;SDS011;39116;59.332;18.034;2022-10-22T09:15:46;6.07;;;5.35;;
10823;SDS011;39116;59.332;18.034;2022-10-22T09:18:18;8.15;;;6.00;;
10823;SDS011;39116;59.332;18.034;2022-10-22T09:20:48;6.50;;;5.43;;
10823;SDS011;39116;59.332;18.034;2022-10-22T09:23:19;7.25;;;5.63;;
10823;SDS011;39116;59.332;18.034;2022-10-22T09:25:48;9.82;;;5.80;;
10823;SDS011;39116;59.332;18.034;2022-10-22T09:28:15;9.43;;;6.00;;
10823;SDS011;39116;59.332;18.034;2022-10-22T09:30:42;7.05;;;6.00;;
10823;SDS011;39116;59.332;18.034;2022-10-22T09:33:10;10.02;;;5.68;;
10823;SDS011;39116;59.332;18.034;2022-10-22T09:35:43;8.63;;;6.20;;
10823;SDS011;39116;59.332;18.034;2022-10-22T09:38:10;8.10;;;6.07;;
10823;SDS011;39116;59.332;18.034;2022-10-22T09:40:41;7.57;;;6.50;;
10823;SDS011;39116;59.332;18.034;2022-10-22T09:43:10;7.40;;;5.97;;
10823;SDS011;39116;59.332;18.034;2022-10-22T09:45:37;8.15;;;6.32;;
10823;SDS011;39116;59.332;18.034;2022-10-22T09:48:08;9.48;;;6.43;;
10823;SDS011;39116;59.332;18.034;2022-10-22T09:50:37;7.70;;;6.07;;
10823;SDS011;39116;59.332;18.034;2022-10-22T09:53:10;9.25;;;6.13;;
10823;SDS011;39116;59.332;18.034;2022-10-22T09:55:38;7.45;;;6.13;;
10823;SDS011;39116;59.332;18.034;2022-10-22T09:58:07;7.35;;;5.75;;
10823;SDS011;39116;59.332;18.034;2022-10-22T10:00:38;7.50;;;5.97;;
10823;SDS011;39116;59.332;18.034;2022-10-22T10:03:04;7.18;;;6.10;;
10823;SDS011;39116;59.332;18.034;2022-10-22T10:05:31;6.55;;;5.88;;
10823;SDS011;39116;59.332;18.034;2022-10-22T10:07:58;8.13;;;6.30;;
10823;SDS011;39116;59.332;18.034;2022-10-22T10:10:36;6.97;;;5.53;;
10823;SDS011;39116;59.332;18.034;2022-10-22T10:13:16;7.38;;;5.75;;
10823;SDS011;39116;59.332;18.034;2022-10-22T10:15:50;6.53;;;5.38;;
10823;SDS011;39116;59.332;18.034;2022-10-22T10:18:21;7.95;;;5.78;;
10823;SDS011;39116;59.332;18.034;2022-10-22T10:20:52;7.57;;;6.60;;
10823;SDS011;39116;59.332;18.034;2022-10-22T10:23:22;7.47;;;6.78;;
10823;SDS011;39116;59.332;18.034;2022-10-22T10:25:55;7.05;;;5.95;;
10823;SDS011;39116;59.332;18.034;2022-10-22T10:28:27;8.60;;;6.30;;
10823;SDS011;39116;59.332;18.034;2022-10-22T10:31:02;7.82;;;6.13;;
10823;SDS011;39116;59.332;18.034;2022-10-22T10:33:32;6.80;;;5.78;;
10823;SDS011;39116;59.332;18.034;2022-10-22T10:36:03;9.50;;;6.22;;
10823;SDS011;39116;59.332;18.034;2022-10-22T10:38:34;9.02;;;6.25;;
10823;SDS011;39116;59.332;18.034;2022-10-22T10:41:18;6.88;;;5.68;;
10823;SDS011;39116;59.332;18.034;2022-10-22T10:43:50;8.32;;;6.00;;
10823;SDS011;39116;59.332;18.034;2022-10-22T10:46:21;9.57;;;6.20;;
10823;SDS011;39116;59.332;18.034;2022-10-22T10:48:52;7.43;;;5.57;;
10823;SDS011;39116;59.332;18.034;2022-10-22T10:51:33;7.88;;;6.32;;
10823;SDS011;39116;59.332;18.034;2022-10-22T10:54:16;9.25;;;6.43;;
10823;SDS011;39116;59.332;18.034;2022-10-22T10:56:44;8.00;;;6.13;;
10823;SDS011;39116;59.332;18.034;2022-10-22T10:59:13;8.80;;;6.43;;
10823;SDS011;39116;59.332;18.034;2022-10-22T11:01:44;10.30;;;6.30;;
10823;SDS011;39116;59.332;18.034;2022-10-22T11:04:28;8.88;;;6.20;;
10823;SDS011;39116;59.332;18.034;2022-10-22T11:06:59;10.45;;;6.40;;
10823;SDS011;39116;59.332;18.034;2022-10-22T11:09:29;10.93;;;6.50;;
10823;SDS011;39116;59.332;18.034;2022-10-22T11:11:58;10.50;;;7.18;;
10823;SDS011;39116;59.332;18.034;2022-10-22T11:14:26;11.02;;;7.78;;
10823;SDS011;39116;59.332;18.034;2022-10-22T11:16:58;11.48;;;7.72;;
10823;SDS011;39116;59.332;18.034;2022-10-22T11:19:28;8.45;;;7.32;;
10823;SDS011;39116;59.332;18.034;2022-10-22T11:21:56;10.32;;;8.18;;
10823;SDS011;39116;59.332;18.034;2022-10-22T11:24:25;11.20;;;8.52;;
10823;SDS011;39116;59.332;18.034;2022-10-22T11:26:53;9.82;;;8.32;;
10823;SDS011;39116;59.332;18.034;2022-10-22T11:29:23;8.02;;;7.07;;
10823;SDS011;39116;59.332;18.034;2022-10-22T11:31:51;9.35;;;8.13;;
10823;SDS011;39116;59.332;18.034;2022-10-22T11:34:20;11.70;;;8.40;;
10823;SDS011;39116;59.332;18.034;2022-10-22T11:36:47;9.88;;;8.57;;
10823;SDS011;39116;59.332;18.034;2022-10-22T11:42:01;9.77;;;8.10;;
10823;SDS011;39116;59.332;18.034;2022-10-22T11:44:28;12.82;;;8.85;;
10823;SDS011;39116;59.332;18.034;2022-10-22T11:46:57;12.13;;;8.73;;
10823;SDS011;39116;59.332;18.034;2022-10-22T11:49:26;10.15;;;7.50;;
10823;SDS011;39116;59.332;18.034;2022-10-22T11:52:21;9.38;;;7.78;;
10823;SDS011;39116;59.332;18.034;2022-10-22T11:54:48;9.63;;;8.57;;
10823;SDS011;39116;59.332;18.034;2022-10-22T11:57:19;11.68;;;8.68;;
10823;SDS011;39116;59.332;18.034;2022-10-22T11:59:50;10.70;;;8.43;;
10823;SDS011;39116;59.332;18.034;2022-10-22T12:08:00;12.90;;;8.80;;
10823;SDS011;39116;59.332;18.034;2022-10-22T12:10:29;13.63;;;8.88;;
10823;SDS011;39116;59.332;18.034;2022-10-22T12:13:01;19.27;;;14.77;;
10823;SDS011;39116;59.332;18.034;2022-10-22T12:15:28;32.58;;;21.80;;
10823;SDS011;39116;59.332;18.034;2022-10-22T12:17:58;60.45;;;31.10;;
10823;SDS011;39116;59.332;18.034;2022-10-22T12:20:25;497.00;;;275.17;;
10823;SDS011;39116;59.332;18.034;2022-10-22T12:22:52;585.28;;;336.45;;
10823;SDS011;39116;59.332;18.034;2022-10-22T12:25:21;243.98;;;129.85;;
10823;SDS011;39116;59.332;18.034;2022-10-22T12:27:49;90.05;;;52.83;;
10823;SDS011;39116;59.332;18.034;2022-10-22T12:30:16;44.58;;;29.50;;
10823;SDS011;39116;59.332;18.034;2022-10-22T12:32:44;42.53;;;26.83;;
10823;SDS011;39116;59.332;18.034;2022-10-22T12:35:13;23.65;;;15.05;;
10823;SDS011;39116;59.332;18.034;2022-10-22T12:37:40;17.98;;;11.38;;
10823;SDS011;39116;59.332;18.034;2022-10-22T12:40:16;14.45;;;10.73;;
10823;SDS011;39116;59.332;18.034;2022-10-22T12:42:47;15.63;;;10.02;;
10823;SDS011;39116;59.332;18.034;2022-10-22T12:45:14;13.82;;;10.93;;
10823;SDS011;39116;59.332;18.034;2022-10-22T12:47:44;12.63;;;11.32;;
10823;SDS011;39116;59.332;18.034;2022-10-22T12:50:13;14.73;;;12.65;;
10823;SDS011;39116;59.332;18.034;2022-10-22T12:52:41;17.58;;;15.65;;
10823;SDS011;39116;59.332;18.034;2022-10-22T12:55:13;12.82;;;11.45;;
10823;SDS011;39116;59.332;18.034;2022-10-22T12:57:40;16.20;;;12.73;;
10823;SDS011;39116;59.332;18.034;2022-10-22T13:00:19;17.15;;;12.10;;
10823;SDS011;39116;59.332;18.034;2022-10-22T13:02:46;14.95;;;13.40;;
10823;SDS011;39116;59.332;18.034;2022-10-22T13:05:15;13.52;;;10.57;;
10823;SDS011;39116;59.332;18.034;2022-10-22T13:07:42;15.10;;;10.73;;
10823;SDS011;39116;59.332;18.034;2022-10-22T13:10:13;14.45;;;10.55;;
10823;SDS011;39116;59.332;18.034;2022-10-22T13:12:43;14.80;;;11.02;;
10823;SDS011;39116;59.332;18.034;2022-10-22T13:15:33;13.35;;;11.30;;
10823;SDS011;39116;59.332;18.034;2022-10-22T13:18:04;13.18;;;10.30;;
10823;SDS011;39116;59.332;18.034;2022-10-22T13:20:31;14.35;;;11.00;;
10823;SDS011;39116;59.332;18.034;2022-10-22T13:22:57;16.60;;;12.18;;
10823;SDS011;39116;59.332;18.034;2022-10-22T13:25:26;16.13;;;12.70;;
10823;SDS011;39116;59.332;18.034;2022-10-22T13:27:53;14.88;;;11.27;;
10823;SDS011;39116;59.332;18.034;2022-10-22T13:30:21;17.30;;;11.32;;
10823;SDS011;39116;59.332;18.034;2022-10-22T13:32:50;13.50;;;10.50;;
10823;SDS011;39116;59.332;18.034;2022-10-22T13:35:17;15.55;;;10.73;;
10823;SDS011;39116;59.332;18.034;2022-10-22T13:37:45;13.48;;;10.32;;
10823;SDS011;39116;59.332;18.034;2022-10-22T13:40:12;14.57;;;10.93;;
10823;SDS011;39116;59.332;18.034;2022-10-22T13:42:39;13.68;;;10.77;;
10823;SDS011;39116;59.332;18.034;2022-10-22T13:45:05;15.32;;;11.30;;
10823;SDS011;39116;59.332;18.034;2022-10-22T13:47:32;15.75;;;11.63;;
10823;SDS011;39116;59.332;18.034;2022-10-22T13:50:00;14.18;;;11.23;;
10823;SDS011;39116;59.332;18.034;2022-10-22T13:52:28;16.17;;;11.43;;
10823;SDS011;39116;59.332;18.034;2022-10-22T13:54:56;17.67;;;10.73;;
10823;SDS011;39116;59.332;18.034;2022-10-22T13:57:23;17.52;;;11.02;;
10823;SDS011;39116;59.332;18.034;2022-10-22T13:59:49;13.07;;;10.85;;
10823;SDS011;39116;59.332;18.034;2022-10-22T14:02:16;16.83;;;11.35;;
10823;SDS011;39116;59.332;18.034;2022-10-22T14:04:43;13.68;;;10.88;;
10823;SDS011;39116;59.332;18.034;2022-10-22T14:07:12;13.95;;;10.45;;
10823;SDS011;39116;59.332;18.034;2022-10-22T14:09:40;13.43;;;10.15;;
10823;SDS011;39116;59.332;18.034;2022-10-22T14:12:09;15.73;;;11.52;;
10823;SDS011;39116;59.332;18.034;2022-10-22T14:14:36;12.85;;;10.57;;
10823;SDS011;39116;59.332;18.034;2022-10-22T14:17:02;14.85;;;11.45;;
10823;SDS011;39116;59.332;18.034;2022-10-22T14:19:29;12.95;;;11.30;;
10823;SDS011;39116;59.332;18.034;2022-10-22T14:21:55;15.43;;;11.90;;
10823;SDS011;39116;59.332;18.034;2022-10-22T14:24:23;17.77;;;11.60;;
10823;SDS011;39116;59.332;18.034;2022-10-22T14:26:50;15.45;;;12.43;;
10823;SDS011;39116;59.332;18.034;2022-10-22T14:29:16;12.43;;;11.15;;
10823;SDS011;39116;59.332;18.034;2022-10-22T14:31:43;14.88;;;12.13;;
10823;SDS011;39116;59.332;18.034;2022-10-22T14:34:10;14.75;;;11.95;;
10823;SDS011;39116;59.332;18.034;2022-10-22T14:36:36;13.77;;;11.75;;
10823;SDS011;39116;59.332;18.034;2022-10-22T14:39:03;19.45;;;11.93;;
10823;SDS011;39116;59.332;18.034;2022-10-22T14:41:31;15.18;;;12.10;;
10823;SDS011;39116;59.332;18.034;2022-10-22T14:43:57;17.48;;;12.25;;
10823;SDS011;39116;59.332;18.034;2022-10-22T14:46:25;15.35;;;11.85;;